createdAt,value
2023-01-03T00:02:26.289Z,182.95
2023-01-03T00:05:15.089Z,135.02
2023-01-03T00:07:57.290Z,188.82
2023-01-03T00:10:46.040Z,144.35
2023-01-03T00:13:28.239Z,115.43
2023-01-03T00:16:28.071Z,120.43
2023-01-03T00:19:17.342Z,115.82
2023-01-03T00:22:06.007Z,163.68
2023-01-03T00:24:48.274Z,110.18
2023-01-03T00:27:37.006Z,120.18
2023-01-03T00:30:19.214Z,134.10
2023-01-03T00:33:07.917Z,117.50
2023-01-03T00:35:56.943Z,126.70
2023-01-03T00:38:46.965Z,131.18
2023-01-03T00:41:29.382Z,124.53
2023-01-03T00:44:17.981Z,187.98
2023-01-03T00:47:00.821Z,188.70
2023-01-03T00:49:49.978Z,169.60
2023-01-03T00:52:45.952Z,163.88
2023-01-03T00:55:34.986Z,145.93
2023-01-03T00:58:23.953Z,199.20
2023-01-03T01:01:08.390Z,162.95
2023-01-03T01:04:00.111Z,207.65
2023-01-03T01:06:45.060Z,160.05
2023-01-03T01:09:41.887Z,153.57
2023-01-03T01:12:24.271Z,176.52
2023-01-03T01:15:12.862Z,168.30
2023-01-03T01:18:01.895Z,139.00
2023-01-03T01:20:55.017Z,228.45
2023-01-03T01:23:38.840Z,331.08
2023-01-03T01:26:33.076Z,299.27
2023-01-03T01:29:16.515Z,223.23
2023-01-03T01:32:04.968Z,255.85
2023-01-03T01:34:53.195Z,261.98
2023-01-03T01:37:35.932Z,257.55
2023-01-03T01:40:32.977Z,311.05
2023-01-03T01:43:48.422Z,308.80
2023-01-03T01:46:40.982Z,225.68
2023-01-03T01:49:33.994Z,232.38
2023-01-03T01:52:25.292Z,289.55
2023-01-03T01:55:12.064Z,201.82
2023-01-03T01:57:55.394Z,275.25
2023-01-03T02:00:43.866Z,275.48
2023-01-03T02:03:32.292Z,242.40
2023-01-03T02:06:17.926Z,246.10
2023-01-03T02:09:00.256Z,241.60
2023-01-03T02:12:39.964Z,281.25
2023-01-03T02:15:59.157Z,266.60
2023-01-03T02:19:07.922Z,199.27
2023-01-03T02:22:23.875Z,312.45
2023-01-03T02:25:41.005Z,287.75
2023-01-03T02:29:07.925Z,257.10
2023-01-03T02:32:05.913Z,305.42
2023-01-03T02:35:13.069Z,244.55
2023-01-03T02:38:22.272Z,343.13
2023-01-03T02:41:43.839Z,334.50
2023-01-03T02:44:44.445Z,316.35
2023-01-03T02:47:36.857Z,221.85
2023-01-03T02:50:21.244Z,382.17
2023-01-03T02:53:13.796Z,316.83
2023-01-03T02:56:06.933Z,294.45
2023-01-03T02:59:00.936Z,355.67
2023-01-03T03:01:53.144Z,413.10
2023-01-03T03:04:45.959Z,302.15
2023-01-03T03:07:49.238Z,306.67
2023-01-03T03:11:17.877Z,345.08
2023-01-03T03:14:37.796Z,317.42
2023-01-03T03:17:36.861Z,254.45
2023-01-03T03:20:42.613Z,248.02
2023-01-03T03:23:56.910Z,241.85
2023-01-03T03:26:45.214Z,267.75
2023-01-03T03:29:35.965Z,283.30
2023-01-03T03:32:18.287Z,258.30
2023-01-03T03:35:09.955Z,233.52
2023-01-03T03:37:55.241Z,273.55
2023-01-03T03:41:16.959Z,199.48
2023-01-03T03:44:29.707Z,235.38
2023-01-03T03:47:39.954Z,206.07
2023-01-03T03:50:49.418Z,244.02
2023-01-03T03:53:43.988Z,243.02
2023-01-03T03:56:32.830Z,268.30
2023-01-03T03:59:27.005Z,208.55
2023-01-03T04:02:13.830Z,203.82
2023-01-03T04:05:06.836Z,247.07
2023-01-03T04:07:49.287Z,335.97
2023-01-03T04:10:38.924Z,235.90
2023-01-03T04:13:21.304Z,191.38
2023-01-03T04:16:10.943Z,218.57
2023-01-03T04:18:59.968Z,204.02
2023-01-03T04:21:42.375Z,202.02
2023-01-03T04:24:30.849Z,194.93
2023-01-03T04:27:19.187Z,181.57
2023-01-03T04:30:00.983Z,193.77
2023-01-03T04:32:43.163Z,207.88
2023-01-03T04:35:31.842Z,187.93
2023-01-03T04:38:14.211Z,213.93
2023-01-03T04:41:02.975Z,210.73
2023-01-03T04:44:05.523Z,216.38
2023-01-03T04:46:52.773Z,187.50
2023-01-03T04:49:41.830Z,193.40
2023-01-03T04:52:36.932Z,187.80
2023-01-03T04:55:19.208Z,193.65
2023-01-03T04:58:08.956Z,203.43
2023-01-03T05:00:57.875Z,199.52
2023-01-03T05:03:46.864Z,187.93
2023-01-03T05:06:29.616Z,178.85
2023-01-03T05:09:18.910Z,177.82
2023-01-03T05:12:08.824Z,181.18
2023-01-03T05:14:51.252Z,202.23
2023-01-03T05:17:39.899Z,184.05
2023-01-03T05:20:40.634Z,193.23
2023-01-03T05:23:48.899Z,202.80
2023-01-03T05:26:37.976Z,189.40
2023-01-03T05:29:22.863Z,187.45
2023-01-03T05:32:12.003Z,215.30
2023-01-03T05:35:00.936Z,231.55
2023-01-03T05:37:43.246Z,212.38
2023-01-03T05:40:37.651Z,232.10
2023-01-03T05:43:23.311Z,230.80
2023-01-03T05:46:11.893Z,234.20
2023-01-03T05:48:54.187Z,213.07
2023-01-03T05:51:49.911Z,201.77
2023-01-03T05:54:38.171Z,212.57
2023-01-03T05:57:20.784Z,204.48
2023-01-03T06:00:09.952Z,236.23
2023-01-03T06:02:52.294Z,214.75
2023-01-03T06:05:47.848Z,198.32
2023-01-03T06:08:32.242Z,213.48
2023-01-03T06:11:23.933Z,203.13
2023-01-03T06:14:06.349Z,198.15
2023-01-03T06:17:13.086Z,217.82
2023-01-03T06:19:55.154Z,220.68
2023-01-03T06:22:43.856Z,204.23
2023-01-03T06:25:26.225Z,201.25
2023-01-03T06:28:14.901Z,207.02
2023-01-03T06:30:57.297Z,212.93
2023-01-03T06:33:46.911Z,213.13
2023-01-03T06:36:33.150Z,215.25
2023-01-03T06:39:21.921Z,222.63
2023-01-03T06:42:24.923Z,221.32
2023-01-03T06:45:32.908Z,256.55
2023-01-03T06:48:35.485Z,270.92
2023-01-03T06:51:52.906Z,261.40
2023-01-03T06:54:44.169Z,246.63
2023-01-03T06:57:27.197Z,234.40
2023-01-03T07:00:16.517Z,219.75
2023-01-03T07:02:58.915Z,227.50
2023-01-03T07:05:41.212Z,218.10
2023-01-03T07:08:29.839Z,222.93
2023-01-03T07:11:18.175Z,211.35
2023-01-03T07:14:06.885Z,212.43
2023-01-03T07:16:50.267Z,219.60
2023-01-03T07:19:38.843Z,230.25
2023-01-03T07:22:21.087Z,218.13
2023-01-03T07:25:10.019Z,221.45
2023-01-03T07:28:08.141Z,222.20
2023-01-03T07:30:53.993Z,219.55
2023-01-03T07:33:43.272Z,205.88
2023-01-03T07:36:25.925Z,217.65
2023-01-03T07:39:14.803Z,218.93
2023-01-03T07:42:22.758Z,182.52
2023-01-03T07:45:12.165Z,185.52
2023-01-03T07:47:54.955Z,193.75
2023-01-03T07:50:44.887Z,189.88
2023-01-03T07:53:34.256Z,188.55
2023-01-03T07:56:28.835Z,179.90
2023-01-03T07:59:17.799Z,189.00
2023-01-03T08:02:06.984Z,185.77
2023-01-03T08:04:56.861Z,183.10
2023-01-03T08:07:45.890Z,194.95
2023-01-03T08:10:46.272Z,186.00
2023-01-03T08:13:35.156Z,189.95
2023-01-03T08:16:25.977Z,179.65
2023-01-03T08:19:08.203Z,186.60
2023-01-03T08:21:56.846Z,189.65
2023-01-03T08:24:39.132Z,190.73
2023-01-03T08:27:27.787Z,194.07
2023-01-03T08:30:16.831Z,190.68
2023-01-03T08:33:09.888Z,194.30
2023-01-03T08:36:15.358Z,197.63
2023-01-03T08:39:10.884Z,199.85
2023-01-03T08:42:02.195Z,196.52
2023-01-03T08:44:52.871Z,191.40
2023-01-03T08:47:37.151Z,201.25
2023-01-03T08:50:25.909Z,195.00
2023-01-03T08:53:14.233Z,210.48
2023-01-03T08:55:55.841Z,185.25
2023-01-03T08:58:44.920Z,193.88
2023-01-03T09:01:33.990Z,232.30
2023-01-03T09:04:22.908Z,250.90
2023-01-03T09:07:11.848Z,287.15
2023-01-03T09:10:00.942Z,293.13
2023-01-03T09:12:49.731Z,379.50
2023-01-03T09:15:38.970Z,441.02
2023-01-03T09:18:21.113Z,420.52
2023-01-03T09:21:12.938Z,502.02
2023-01-03T09:23:55.191Z,538.65
2023-01-03T09:26:45.945Z,535.97
2023-01-03T09:29:31.117Z,585.63
2023-01-03T09:32:19.934Z,604.83
2023-01-03T09:35:02.191Z,583.35
2023-01-03T09:37:50.756Z,577.33
2023-01-03T09:40:40.768Z,570.53
2023-01-03T09:43:32.149Z,566.92
2023-01-03T09:46:14.931Z,546.08
2023-01-03T09:49:21.977Z,549.88
2023-01-03T09:52:34.766Z,555.47
2023-01-03T09:55:58.798Z,530.35
2023-01-03T09:58:59.737Z,536.03
2023-01-03T10:02:13.948Z,516.30
2023-01-03T10:04:59.145Z,514.60
2023-01-03T10:08:08.857Z,501.65
2023-01-03T10:11:08.310Z,513.05
2023-01-03T10:14:24.875Z,499.15
2023-01-03T10:17:25.842Z,499.77
2023-01-03T10:20:38.873Z,490.42
2023-01-03T10:23:21.296Z,492.80
2023-01-03T10:26:13.895Z,480.13
2023-01-03T10:28:56.213Z,534.27
2023-01-03T10:31:57.888Z,516.38
2023-01-03T10:34:40.196Z,503.52
2023-01-03T10:37:28.865Z,475.38
2023-01-03T10:40:13.169Z,482.38
2023-01-03T10:43:02.830Z,544.40
2023-01-03T10:46:03.172Z,570.55
2023-01-03T10:49:26.147Z,573.20
2023-01-03T10:52:08.875Z,559.00
2023-01-03T10:54:55.862Z,553.35
2023-01-03T10:58:06.797Z,544.25
2023-01-03T11:00:49.492Z,540.95
2023-01-03T11:03:43.989Z,543.97
2023-01-03T11:06:34.901Z,531.85
2023-01-03T11:09:19.130Z,467.35
2023-01-03T11:12:25.718Z,402.00
2023-01-03T11:15:15.826Z,349.27
2023-01-03T11:18:05.873Z,318.42
2023-01-03T11:20:52.059Z,326.75
2023-01-03T11:23:48.852Z,344.55
2023-01-03T11:26:58.849Z,397.38
2023-01-03T11:30:09.772Z,404.77
2023-01-03T11:33:15.832Z,401.70
2023-01-03T11:36:22.895Z,382.92
2023-01-03T11:39:53.751Z,395.02
2023-01-03T11:43:05.851Z,409.50
2023-01-03T11:46:20.856Z,412.30
2023-01-03T11:49:15.729Z,436.35
2023-01-03T11:52:22.773Z,425.92
2023-01-03T11:55:41.821Z,414.02
2023-01-03T11:58:43.089Z,410.60
2023-01-03T12:01:54.892Z,420.85
2023-01-03T12:05:16.130Z,410.63
2023-01-03T12:08:59.711Z,407.20
2023-01-03T12:12:38.895Z,415.30
2023-01-03T12:15:33.162Z,412.00
2023-01-03T12:18:44.972Z,412.83
2023-01-03T12:21:46.213Z,414.73
2023-01-03T12:24:43.787Z,413.55
2023-01-03T12:27:42.770Z,415.52
2023-01-03T12:30:43.196Z,419.52
2023-01-03T12:33:38.808Z,428.90
2023-01-03T12:36:43.939Z,409.63
2023-01-03T12:40:01.143Z,428.83
2023-01-03T12:42:54.881Z,436.50
2023-01-03T12:48:47.842Z,432.15
2023-01-03T12:51:43.725Z,422.17
2023-01-03T12:54:37.893Z,437.27
2023-01-03T12:57:43.462Z,462.42
2023-01-03T13:01:01.784Z,453.75
2023-01-03T13:03:59.137Z,468.90
2023-01-03T13:06:54.846Z,474.70
2023-01-03T13:09:49.061Z,484.20
2023-01-03T13:15:44.895Z,468.73
2023-01-03T13:18:26.969Z,481.42
2023-01-03T13:21:17.231Z,493.65
2023-01-03T13:24:08.264Z,492.38
2023-01-03T13:27:25.833Z,496.67
2023-01-03T13:30:33.469Z,493.80
2023-01-03T13:33:18.946Z,500.15
2023-01-03T13:36:10.659Z,495.27
2023-01-03T13:38:53.899Z,520.08
2023-01-03T13:41:41.017Z,497.58
2023-01-03T13:44:38.714Z,499.05
2023-01-03T13:47:52.865Z,506.02
2023-01-03T13:50:40.100Z,504.52
2023-01-03T13:53:28.893Z,526.95
2023-01-03T13:56:23.251Z,510.75
2023-01-03T13:59:51.850Z,560.25
2023-01-03T14:03:30.360Z,491.38
2023-01-03T14:06:44.863Z,494.15
2023-01-03T14:09:57.690Z,486.52
2023-01-03T14:13:04.852Z,486.42
2023-01-03T14:15:53.880Z,504.90
2023-01-03T14:18:44.212Z,502.30
2023-01-03T14:21:32.836Z,517.17
2023-01-03T14:24:35.683Z,517.70
2023-01-03T14:27:29.934Z,529.50
2023-01-03T14:30:38.467Z,512.28
2023-01-03T14:33:29.783Z,538.55
2023-01-03T14:36:23.726Z,540.10
2023-01-03T14:39:14.815Z,498.50
2023-01-03T14:42:04.275Z,542.60
2023-01-03T14:44:46.924Z,524.78
2023-01-03T14:47:48.131Z,543.40
2023-01-03T14:50:36.817Z,532.63
2023-01-03T14:53:32.869Z,517.72
2023-01-03T14:56:22.118Z,507.58
2023-01-03T14:59:04.725Z,512.30
2023-01-03T15:01:48.280Z,482.48
2023-01-03T15:04:39.681Z,490.60
2023-01-03T15:07:50.826Z,507.70
2023-01-03T15:10:42.169Z,497.80
2023-01-03T15:13:37.910Z,495.60
2023-01-03T15:16:39.147Z,493.27
2023-01-03T15:19:36.835Z,477.88
2023-01-03T15:22:47.327Z,485.35
2023-01-03T15:25:45.812Z,477.23
2023-01-03T15:28:58.094Z,499.10
2023-01-03T15:31:55.985Z,498.80
2023-01-03T15:34:39.202Z,482.17
2023-01-03T15:37:31.784Z,501.40
2023-01-03T15:40:15.186Z,492.52
2023-01-03T15:43:21.959Z,511.15
2023-01-03T15:46:25.653Z,489.77
2023-01-03T15:49:14.726Z,506.30
2023-01-03T15:51:58.222Z,500.23
2023-01-03T15:54:46.845Z,486.25
2023-01-03T15:57:37.099Z,490.63
2023-01-03T16:00:31.718Z,472.45
2023-01-03T16:03:20.784Z,490.75
2023-01-03T16:06:03.902Z,478.15
2023-01-03T16:08:54.730Z,487.17
2023-01-03T16:11:37.124Z,465.13
2023-01-03T16:14:34.714Z,467.23
2023-01-03T16:17:33.021Z,475.45
2023-01-03T16:20:21.235Z,485.92
2023-01-03T16:23:09.812Z,483.52
2023-01-03T16:25:52.169Z,469.92
2023-01-03T16:28:40.763Z,460.58
2023-01-03T16:31:31.687Z,448.90
2023-01-03T16:34:33.436Z,454.58
2023-01-03T16:37:18.327Z,452.77
2023-01-03T16:40:07.651Z,453.48
2023-01-03T16:42:56.869Z,452.83
2023-01-03T16:45:47.636Z,451.60
2023-01-03T16:48:32.862Z,451.33
2023-01-03T16:51:34.175Z,432.58
2023-01-03T16:54:23.809Z,432.17
2023-01-03T16:57:12.679Z,411.95
2023-01-03T16:59:55.021Z,410.25
2023-01-03T17:02:43.909Z,416.40
2023-01-03T17:05:27.786Z,412.08
2023-01-03T17:08:26.790Z,392.10
2023-01-03T17:11:16.954Z,394.75
2023-01-03T17:14:03.229Z,386.80
2023-01-03T17:16:51.908Z,381.45
2023-01-03T17:22:43.786Z,376.63
2023-01-03T17:25:26.739Z,381.70
2023-01-03T17:28:18.739Z,370.92
2023-01-03T17:31:07.916Z,359.10
2023-01-03T17:33:56.940Z,374.30
2023-01-03T17:36:41.599Z,365.63
2023-01-03T17:39:31.710Z,371.63
2023-01-03T17:42:23.232Z,365.90
2023-01-03T17:45:30.918Z,362.05
2023-01-03T17:48:31.420Z,369.17
2023-01-03T17:51:20.813Z,376.02
2023-01-03T17:54:16.770Z,371.77
2023-01-03T17:57:07.798Z,371.35
2023-01-03T17:59:50.443Z,367.95
2023-01-03T18:02:41.217Z,378.88
2023-01-03T18:05:27.959Z,383.05
2023-01-03T18:08:26.706Z,364.90
2023-01-03T18:11:09.372Z,344.73
2023-01-03T18:13:57.692Z,356.52
2023-01-03T18:16:40.332Z,370.38
2023-01-03T18:19:29.759Z,372.80
2023-01-03T18:22:12.290Z,345.50
2023-01-03T18:25:01.915Z,369.67
2023-01-03T18:27:44.349Z,363.17
2023-01-03T18:30:32.664Z,359.67
2023-01-03T18:33:15.158Z,357.77
2023-01-03T18:36:03.819Z,359.23
2023-01-03T18:38:45.997Z,377.63
2023-01-03T18:41:37.645Z,363.77
2023-01-03T18:44:32.245Z,357.55
2023-01-03T18:47:21.847Z,367.70
2023-01-03T18:50:04.105Z,353.20
2023-01-03T18:53:00.869Z,341.20
2023-01-03T18:55:50.105Z,354.25
2023-01-03T18:58:40.753Z,373.75
2023-01-03T19:01:30.237Z,334.83
2023-01-03T19:04:12.702Z,338.38
2023-01-03T19:06:55.072Z,349.17
2023-01-03T19:09:44.682Z,353.65
2023-01-03T19:12:34.038Z,338.90
2023-01-03T19:15:37.851Z,333.45
2023-01-03T19:21:08.139Z,332.40
2023-01-03T19:24:07.759Z,337.02
2023-01-03T19:26:55.077Z,344.92
2023-01-03T19:29:45.825Z,349.08
2023-01-03T19:32:35.270Z,339.95
2023-01-03T19:35:24.751Z,349.95
2023-01-03T19:38:07.047Z,333.80
2023-01-03T19:40:55.715Z,355.25
2023-01-03T19:43:44.754Z,370.45
2023-01-03T19:46:27.089Z,359.92
2023-01-03T19:49:15.733Z,349.30
2023-01-03T19:52:00.648Z,381.80
2023-01-03T19:54:49.761Z,355.48
2023-01-03T19:57:41.762Z,344.63
2023-01-03T20:00:44.778Z,366.13
2023-01-03T20:03:42.857Z,381.47
2023-01-03T20:06:32.750Z,390.75
2023-01-03T20:09:21.620Z,375.15
2023-01-03T20:12:10.741Z,371.77
2023-01-03T20:15:07.228Z,388.85
2023-01-03T20:17:50.052Z,384.83
2023-01-03T20:20:40.796Z,398.77
2023-01-03T20:23:25.608Z,372.35
2023-01-03T20:26:18.706Z,377.63
2023-01-03T20:29:03.211Z,379.52
2023-01-03T20:31:51.759Z,399.00
2023-01-03T20:34:34.113Z,380.15
2023-01-03T20:37:28.865Z,391.35
2023-01-03T20:40:11.136Z,394.15
2023-01-03T20:43:01.014Z,399.92
2023-01-03T20:45:44.224Z,401.83
2023-01-03T20:48:32.766Z,393.33
2023-01-03T20:51:18.127Z,378.25
2023-01-03T20:54:07.727Z,387.60
2023-01-03T20:56:50.111Z,378.20
2023-01-03T20:59:39.645Z,393.98
2023-01-03T21:02:22.333Z,400.83
2023-01-03T21:05:12.684Z,372.08
2023-01-03T21:08:14.610Z,392.40
2023-01-03T21:11:03.700Z,392.25
2023-01-03T21:13:52.787Z,394.23
2023-01-03T21:16:42.381Z,377.55
2023-01-03T21:19:32.617Z,371.73
2023-01-03T21:22:27.788Z,386.33
2023-01-03T21:25:16.719Z,390.10
2023-01-03T21:28:05.013Z,382.00
2023-01-03T21:30:47.865Z,406.42
2023-01-03T21:33:36.129Z,400.02
2023-01-03T21:36:23.279Z,389.98
2023-01-03T21:39:12.653Z,394.52
2023-01-03T21:42:19.761Z,374.58
2023-01-03T21:45:08.984Z,383.20
2023-01-03T21:47:51.788Z,389.50
2023-01-03T21:50:37.308Z,402.65
2023-01-03T21:53:36.751Z,379.67
2023-01-03T21:56:31.083Z,385.25
2023-01-03T21:59:13.744Z,384.30
2023-01-03T22:02:20.346Z,407.10
2023-01-03T22:05:02.636Z,378.63
2023-01-03T22:07:51.777Z,382.17
2023-01-03T22:10:41.665Z,378.65
2023-01-03T22:13:29.977Z,388.75
2023-01-03T22:16:14.738Z,376.92
2023-01-03T22:19:02.981Z,393.23
2023-01-03T22:21:45.798Z,384.15
2023-01-03T22:24:33.968Z,392.38
2023-01-03T22:27:15.807Z,362.30
2023-01-03T22:29:58.023Z,372.58
2023-01-03T22:32:46.615Z,358.70
2023-01-03T22:35:35.600Z,364.55
2023-01-03T22:38:19.331Z,358.13
2023-01-03T22:41:10.712Z,344.25
2023-01-03T22:43:53.985Z,350.13
2023-01-03T22:46:42.785Z,369.05
2023-01-03T22:49:25.039Z,355.02
2023-01-03T22:52:13.944Z,377.83
2023-01-03T22:55:09.620Z,366.27
2023-01-03T22:57:58.749Z,381.85
2023-01-03T23:00:41.071Z,365.30
2023-01-03T23:03:29.711Z,348.52
2023-01-03T23:06:16.936Z,354.02
2023-01-03T23:09:05.644Z,361.83
2023-01-03T23:12:13.780Z,350.02
2023-01-03T23:15:02.151Z,397.70
2023-01-03T23:18:02.696Z,403.63
2023-01-03T23:20:51.989Z,411.40
2023-01-03T23:23:34.688Z,423.98
2023-01-03T23:26:23.647Z,417.00
2023-01-03T23:29:07.928Z,412.38
2023-01-03T23:31:56.753Z,394.75
2023-01-03T23:34:45.741Z,395.40
2023-01-03T23:37:29.404Z,413.77
2023-01-03T23:40:18.714Z,425.23
2023-01-03T23:43:00.883Z,403.15
2023-01-03T23:45:50.802Z,431.95
2023-01-03T23:48:33.378Z,432.17
2023-01-03T23:51:24.767Z,404.42
2023-01-03T23:54:12.966Z,395.25
2023-01-03T23:56:55.562Z,403.63
2023-01-03T23:59:44.601Z,417.77
